createdAt,value
2023-01-01T00:20:42.365Z,96853.16
2023-01-01T00:23:11.244Z,96855.22
2023-01-01T00:25:40.957Z,96860.19
2023-01-01T00:28:11.111Z,96856.25
2023-01-01T00:30:42.691Z,96865.66
2023-01-01T00:33:11.558Z,96873.97
2023-01-01T00:35:40.720Z,96883.28
2023-01-01T00:38:10.766Z,96886.00
2023-01-01T00:40:40.148Z,96854.19
2023-01-01T00:43:08.827Z,96898.09
2023-01-01T00:45:38.040Z,96870.63
2023-01-01T00:48:07.325Z,96885.88
2023-01-01T00:50:37.403Z,96885.44
2023-01-01T00:53:06.553Z,96880.88
2023-01-01T00:55:36.293Z,96892.22
2023-01-01T00:58:04.938Z,96889.28
2023-01-01T01:00:33.701Z,96885.78
2023-01-01T01:03:02.505Z,96872.25
2023-01-01T01:05:33.380Z,96886.75
2023-01-01T01:08:02.201Z,96881.03
2023-01-01T01:10:30.640Z,96902.81
2023-01-01T01:13:00.995Z,96878.22
2023-01-01T01:15:32.527Z,96883.63
2023-01-01T01:18:01.503Z,96882.09
2023-01-01T01:20:30.292Z,96895.41
2023-01-01T01:22:59.228Z,96904.75
2023-01-01T01:25:28.478Z,96899.19
2023-01-01T01:27:56.918Z,96912.63
2023-01-01T01:30:27.067Z,96916.75
2023-01-01T01:32:56.456Z,96923.22
2023-01-01T01:35:24.872Z,96908.69
2023-01-01T01:37:53.986Z,96919.09
2023-01-01T01:40:22.836Z,96929.50
2023-01-01T01:42:52.802Z,96922.03
2023-01-01T01:45:21.166Z,96922.63
2023-01-01T01:47:54.573Z,96920.38
2023-01-01T01:50:27.758Z,96919.50
2023-01-01T01:53:04.570Z,96912.31
2023-01-01T01:55:36.450Z,96912.91
2023-01-01T01:58:07.098Z,96917.72
2023-01-01T02:00:36.687Z,96923.94
2023-01-01T02:03:09.178Z,96910.06
2023-01-01T02:05:41.928Z,96906.81
2023-01-01T02:08:14.571Z,96920.28
2023-01-01T02:10:47.072Z,96926.06
2023-01-01T02:13:16.166Z,96898.47
2023-01-01T02:15:53.447Z,96922.34
2023-01-01T02:18:26.719Z,96926.47
2023-01-01T02:21:01.262Z,96920.06
2023-01-01T02:24:01.933Z,96913.63
2023-01-01T02:26:43.670Z,96911.19
2023-01-01T02:29:21.899Z,96896.31
2023-01-01T02:31:54.756Z,96911.59
2023-01-01T02:34:27.868Z,96912.66
2023-01-01T02:36:59.379Z,96916.19
2023-01-01T02:39:34.782Z,96914.94
2023-01-01T02:42:07.098Z,96911.19
2023-01-01T02:44:42.698Z,96911.28
2023-01-01T02:47:14.941Z,96902.78
2023-01-01T02:49:56.249Z,96911.72
2023-01-01T02:52:43.471Z,96912.75
2023-01-01T02:55:25.992Z,96910.91
2023-01-01T02:58:22.603Z,96905.97
2023-01-01T03:00:56.252Z,96904.47
2023-01-01T03:03:33.647Z,96908.22
2023-01-01T03:06:27.782Z,96902.81
2023-01-01T03:09:09.476Z,96907.38
2023-01-01T03:11:47.166Z,96909.06
2023-01-01T03:14:21.963Z,96904.06
2023-01-01T03:16:59.147Z,96906.53
2023-01-01T03:19:31.105Z,96905.72
2023-01-01T03:22:05.482Z,96908.00
2023-01-01T03:24:36.247Z,96909.50
2023-01-01T03:27:09.669Z,96904.75
2023-01-01T03:29:41.918Z,96916.56
2023-01-01T03:32:15.141Z,96910.81
2023-01-01T03:34:49.478Z,96916.25
2023-01-01T03:37:26.772Z,96911.22
2023-01-01T03:39:59.560Z,96908.75
2023-01-01T03:42:34.805Z,96932.56
2023-01-01T03:45:08.212Z,96920.56
2023-01-01T03:47:38.476Z,96927.41
2023-01-01T03:50:08.795Z,96930.53
2023-01-01T03:52:44.676Z,96926.13
2023-01-01T03:55:19.946Z,96924.31
2023-01-01T03:57:56.674Z,96934.75
2023-01-01T04:00:32.545Z,96937.06
2023-01-01T04:03:07.774Z,96934.56
2023-01-01T04:05:38.809Z,96938.28
2023-01-01T04:08:09.678Z,96906.59
2023-01-01T04:10:42.980Z,96941.59
2023-01-01T04:13:12.219Z,96938.09
2023-01-01T04:15:41.032Z,96936.63
2023-01-01T04:18:11.184Z,96956.16
2023-01-01T04:20:39.617Z,96944.09
2023-01-01T04:23:09.151Z,96936.22
2023-01-01T04:25:38.189Z,96936.03
2023-01-01T04:28:06.794Z,96936.63
2023-01-01T04:33:03.988Z,96931.44
2023-01-01T04:35:35.734Z,96924.19
2023-01-01T04:38:04.288Z,96940.59
2023-01-01T04:40:34.142Z,96935.88
2023-01-01T04:43:02.866Z,96919.72
2023-01-01T04:45:32.345Z,96920.53
2023-01-01T04:48:05.867Z,96946.44
2023-01-01T04:50:36.128Z,96918.44
2023-01-01T04:53:04.752Z,96935.63
2023-01-01T04:55:35.213Z,96926.31
2023-01-01T04:58:04.671Z,96957.00
2023-01-01T05:00:33.158Z,96933.56
2023-01-01T05:03:02.838Z,96946.81
2023-01-01T05:05:31.449Z,96958.84
2023-01-01T05:08:02.042Z,96961.13
2023-01-01T05:10:30.612Z,96959.88
2023-01-01T05:12:59.804Z,96984.59
2023-01-01T05:15:28.778Z,96971.69
2023-01-01T05:17:57.414Z,96961.34
2023-01-01T05:20:26.697Z,96981.88
2023-01-01T05:22:55.125Z,96980.22
2023-01-01T05:25:25.936Z,96977.31
2023-01-01T05:27:55.363Z,96963.84
2023-01-01T05:30:24.667Z,96969.44
2023-01-01T05:32:53.425Z,96968.84
2023-01-01T05:35:26.174Z,96978.81
2023-01-01T05:37:56.154Z,96975.69
2023-01-01T05:40:25.834Z,96969.06
2023-01-01T05:42:54.451Z,96970.94
2023-01-01T05:45:23.113Z,96969.91
2023-01-01T05:47:52.102Z,96969.47
2023-01-01T05:50:20.525Z,96984.59
2023-01-01T05:52:49.832Z,96979.19
2023-01-01T05:55:18.531Z,96986.91
2023-01-01T05:57:48.206Z,96987.72
2023-01-01T06:00:17.821Z,96992.06
2023-01-01T06:02:46.210Z,96987.31
2023-01-01T06:05:15.057Z,96985.03
2023-01-01T06:07:48.403Z,96992.09
2023-01-01T06:10:18.277Z,96988.56
2023-01-01T06:12:47.926Z,96997.28
2023-01-01T06:15:17.125Z,97018.84
2023-01-01T06:17:45.474Z,97006.41
2023-01-01T06:20:14.573Z,97018.63
2023-01-01T06:22:42.989Z,97015.09
2023-01-01T06:25:12.690Z,97008.06
2023-01-01T06:27:42.064Z,97025.66
2023-01-01T06:30:13.167Z,97019.47
2023-01-01T06:32:41.496Z,97018.41
2023-01-01T06:35:10.551Z,97033.97
2023-01-01T06:37:38.882Z,97026.91
2023-01-01T06:40:09.407Z,97029.19
2023-01-01T06:42:37.720Z,97037.25
2023-01-01T06:45:08.043Z,97038.31
2023-01-01T06:47:38.628Z,97037.69
2023-01-01T06:50:09.297Z,97043.28
2023-01-01T06:52:37.657Z,97035.19
2023-01-01T06:55:08.081Z,97030.41
2023-01-01T06:57:36.589Z,97028.13
2023-01-01T07:00:06.704Z,97047.41
2023-01-01T07:02:37.538Z,97037.25
2023-01-01T07:05:07.411Z,97055.66
2023-01-01T07:07:36.203Z,97052.75
2023-01-01T07:10:05.903Z,97050.69
2023-01-01T07:12:34.442Z,97065.63
2023-01-01T07:15:03.187Z,97063.34
2023-01-01T07:17:32.483Z,97064.59
2023-01-01T07:20:02.230Z,97060.66
2023-01-01T07:22:31.616Z,97068.94
2023-01-01T07:24:59.922Z,97063.75
2023-01-01T07:27:28.556Z,97078.06
2023-01-01T07:29:57.037Z,97072.09
2023-01-01T07:32:25.437Z,97075.81
2023-01-01T07:34:53.752Z,97077.25
2023-01-01T07:37:26.133Z,97083.50
2023-01-01T07:39:54.761Z,97080.59
2023-01-01T07:42:23.084Z,97096.19
2023-01-01T07:44:52.367Z,97090.13
2023-01-01T07:47:23.962Z,97084.72
2023-01-01T07:49:52.753Z,97095.50
2023-01-01T07:52:21.175Z,97093.25
2023-01-01T07:54:50.815Z,97104.66
2023-01-01T07:57:19.652Z,97099.50
2023-01-01T07:59:48.312Z,97108.41
2023-01-01T08:02:16.766Z,97103.66
2023-01-01T08:04:45.242Z,97115.72
2023-01-01T08:07:13.563Z,97117.56
2023-01-01T08:09:41.994Z,97119.66
2023-01-01T08:12:11.673Z,97099.72
2023-01-01T08:14:40.780Z,97110.75
2023-01-01T08:17:09.124Z,97110.09
2023-01-01T08:19:38.165Z,97111.63
2023-01-01T08:22:07.024Z,97110.13
2023-01-01T08:24:36.078Z,97109.97
2023-01-01T08:27:05.056Z,97119.88
2023-01-01T08:29:35.134Z,97122.34
2023-01-01T08:32:03.880Z,97124.81
2023-01-01T08:34:32.209Z,97112.69
2023-01-01T08:37:01.033Z,97117.13
2023-01-01T08:39:30.011Z,97122.53
2023-01-01T08:41:58.332Z,97134.06
2023-01-01T08:44:26.659Z,97127.22
2023-01-01T08:46:56.347Z,97137.31
2023-01-01T08:49:25.165Z,97134.56
2023-01-01T08:51:53.518Z,97128.97
2023-01-01T08:54:22.328Z,97136.94
2023-01-01T08:56:50.704Z,97141.34
2023-01-01T08:59:20.726Z,97131.38
2023-01-01T09:01:49.770Z,97136.53
2023-01-01T09:04:19.659Z,97132.34
2023-01-01T09:06:47.972Z,97122.31
2023-01-01T09:09:18.692Z,97137.16
2023-01-01T09:11:52.084Z,97140.47
2023-01-01T09:14:20.888Z,97141.25
2023-01-01T09:16:49.509Z,97153.63
2023-01-01T09:19:21.701Z,97154.94
2023-01-01T09:21:50.049Z,97155.78
2023-01-01T09:24:18.401Z,97151.38
2023-01-01T09:26:47.617Z,97162.34
2023-01-01T09:29:18.515Z,97155.66
2023-01-01T09:31:48.023Z,97162.19
2023-01-01T09:34:18.019Z,97164.34
2023-01-01T09:36:48.797Z,97163.31
2023-01-01T09:39:19.006Z,97157.78
2023-01-01T09:41:58.675Z,97166.09
2023-01-01T09:44:45.650Z,97144.66
2023-01-01T09:47:25.123Z,97142.91
2023-01-01T09:49:58.387Z,97135.84
2023-01-01T09:52:36.779Z,97144.84
2023-01-01T09:55:16.308Z,97150.41
2023-01-01T09:57:44.649Z,97153.25
2023-01-01T10:00:17.450Z,97151.00
2023-01-01T10:03:02.578Z,97133.28
2023-01-01T10:05:42.933Z,97117.47
2023-01-01T10:08:24.664Z,97127.63
2023-01-01T10:11:02.904Z,97132.94
2023-01-01T10:13:38.133Z,97116.38
2023-01-01T10:16:13.451Z,97123.59
2023-01-01T10:18:44.501Z,97125.31
2023-01-01T10:21:17.871Z,97111.44
2023-01-01T10:23:51.551Z,97110.22
2023-01-01T10:26:23.947Z,97113.94
2023-01-01T10:29:01.635Z,97117.66
2023-01-01T10:31:34.592Z,97118.94
2023-01-01T10:34:12.835Z,97126.81
2023-01-01T10:36:41.715Z,97089.50
2023-01-01T10:39:16.043Z,97119.44
2023-01-01T10:41:44.945Z,97117.44
2023-01-01T10:44:15.065Z,97118.31
2023-01-01T10:46:48.860Z,97109.88
2023-01-01T10:49:17.213Z,97096.28
2023-01-01T10:51:48.511Z,97106.63
2023-01-01T10:54:36.666Z,97106.50
2023-01-01T10:57:15.944Z,97110.13
2023-01-01T10:59:51.737Z,97113.63
2023-01-01T11:02:25.185Z,97085.53
2023-01-01T11:05:20.850Z,97099.66
2023-01-01T11:07:51.366Z,97100.06
2023-01-01T11:10:23.826Z,97100.06
2023-01-01T11:13:10.237Z,97096.19
2023-01-01T11:15:41.016Z,97100.22
2023-01-01T11:18:16.681Z,97083.44
2023-01-01T11:20:45.193Z,97087.38
2023-01-01T11:23:29.622Z,97083.56
2023-01-01T11:26:01.665Z,97088.81
2023-01-01T11:28:34.706Z,97086.38
2023-01-01T11:31:22.618Z,97094.94
2023-01-01T11:33:53.896Z,97084.28
2023-01-01T11:36:25.046Z,97088.66
2023-01-01T11:39:08.241Z,97086.00
2023-01-01T11:41:46.403Z,97075.38
2023-01-01T11:44:26.875Z,97073.78
2023-01-01T11:46:55.497Z,97069.09
2023-01-01T11:49:29.204Z,97076.25
2023-01-01T11:51:58.687Z,97069.16
2023-01-01T11:54:32.831Z,97065.59
2023-01-01T11:57:11.064Z,97059.03
2023-01-01T11:59:46.759Z,97063.13
2023-01-01T12:02:22.572Z,97066.69
2023-01-01T12:04:57.038Z,97071.88
2023-01-01T12:07:32.321Z,97065.19
2023-01-01T12:10:05.730Z,97057.25
2023-01-01T12:12:40.428Z,97065.03
2023-01-01T12:15:19.829Z,97067.19
2023-01-01T12:17:53.275Z,97037.34
2023-01-01T12:20:26.953Z,97071.97
2023-01-01T12:22:56.807Z,97073.06
2023-01-01T12:25:33.777Z,97075.53
2023-01-01T12:28:13.293Z,97065.66
2023-01-01T12:30:50.709Z,97068.97
2023-01-01T12:33:34.182Z,97070.06
2023-01-01T12:36:20.525Z,97070.31
2023-01-01T12:39:41.501Z,97071.94
2023-01-01T12:42:18.622Z,97072.72
2023-01-01T12:45:09.198Z,97077.09
2023-01-01T12:47:45.813Z,97058.13
2023-01-01T12:50:28.706Z,97058.19
2023-01-01T12:53:08.892Z,97051.31
2023-01-01T12:56:22.451Z,97052.94
2023-01-01T12:58:56.795Z,97048.47
2023-01-01T13:01:33.330Z,97052.31
2023-01-01T13:04:05.303Z,97038.81
2023-01-01T13:06:41.102Z,97046.78
2023-01-01T13:09:16.639Z,97051.19
2023-01-01T13:11:47.760Z,97044.78
2023-01-01T13:14:16.869Z,97055.38
2023-01-01T13:16:50.597Z,97048.25
2023-01-01T13:19:28.671Z,96987.50
2023-01-01T13:21:56.981Z,97035.59
2023-01-01T13:24:27.840Z,97044.75
2023-01-01T13:26:56.611Z,97042.44
2023-01-01T13:29:44.181Z,97045.69
2023-01-01T13:32:16.072Z,97051.41
2023-01-01T13:35:03.905Z,97047.88
2023-01-01T13:37:45.252Z,97049.47
2023-01-01T13:40:47.987Z,97042.84
2023-01-01T13:43:29.328Z,97039.00
2023-01-01T13:46:15.230Z,97048.44
2023-01-01T13:49:13.746Z,97043.97
2023-01-01T13:52:06.445Z,97045.53
2023-01-01T13:55:16.284Z,97050.19
2023-01-01T13:58:11.749Z,97046.66
2023-01-01T14:00:50.042Z,97054.66
2023-01-01T14:03:22.220Z,97058.16
2023-01-01T14:05:58.098Z,97050.13
2023-01-01T14:08:30.955Z,97044.06
2023-01-01T14:11:02.378Z,97044.94
2023-01-01T14:13:32.620Z,97052.13
2023-01-01T14:16:04.235Z,97044.72
2023-01-01T14:18:35.591Z,97052.16
2023-01-01T14:21:11.082Z,97056.06
2023-01-01T14:23:42.922Z,97047.69
2023-01-01T14:26:15.021Z,97043.16
2023-01-01T14:28:45.102Z,97044.19
2023-01-01T14:31:17.247Z,97035.81
2023-01-01T14:33:47.426Z,97043.59
2023-01-01T14:36:23.244Z,97040.38
2023-01-01T14:38:53.132Z,97042.63
2023-01-01T14:41:28.663Z,97030.84
2023-01-01T14:44:00.037Z,97030.56
2023-01-01T14:46:29.171Z,97038.22
2023-01-01T14:48:59.685Z,97031.59
2023-01-01T14:51:33.106Z,97037.91
2023-01-01T14:54:03.929Z,97037.81
2023-01-01T14:56:35.297Z,97053.03
2023-01-01T14:59:07.939Z,97054.84
2023-01-01T15:01:37.274Z,97045.69
2023-01-01T15:04:18.999Z,97038.66
2023-01-01T15:06:54.824Z,97049.81
2023-01-01T15:09:23.534Z,97042.09
2023-01-01T15:11:53.841Z,97046.63
2023-01-01T15:14:34.696Z,97050.44
2023-01-01T15:17:05.647Z,97049.56
2023-01-01T15:19:36.877Z,97039.31
2023-01-01T15:22:12.366Z,97039.31
2023-01-01T15:24:42.092Z,97047.72
2023-01-01T15:27:22.576Z,97039.94
2023-01-01T15:29:52.044Z,97035.28
2023-01-01T15:32:26.349Z,97019.25
2023-01-01T15:34:57.765Z,97030.16
2023-01-01T15:37:34.563Z,97001.81
2023-01-01T15:40:24.308Z,97032.63
2023-01-01T15:43:22.675Z,97025.97
2023-01-01T15:45:54.849Z,97024.69
2023-01-01T15:48:31.307Z,97029.16
2023-01-01T15:51:13.124Z,97024.56
2023-01-01T15:53:50.434Z,97023.47
2023-01-01T15:56:19.655Z,97034.69
2023-01-01T15:58:56.763Z,97020.81
2023-01-01T16:01:29.144Z,97030.31
2023-01-01T16:04:04.366Z,97022.22
2023-01-01T16:06:33.539Z,97020.41
2023-01-01T16:09:02.433Z,97030.63
2023-01-01T16:11:30.809Z,97025.31
2023-01-01T16:14:01.431Z,97028.50
2023-01-01T16:16:32.266Z,97011.91
2023-01-01T16:19:02.681Z,97030.69
2023-01-01T16:21:34.326Z,97030.00
2023-01-01T16:24:02.741Z,97029.69
2023-01-01T16:26:32.298Z,97013.53
2023-01-01T16:29:02.479Z,97022.06
2023-01-01T16:31:32.102Z,97015.44
2023-01-01T16:34:02.205Z,97015.78
2023-01-01T16:36:32.340Z,97012.63
2023-01-01T16:39:01.290Z,96989.25
2023-01-01T16:41:30.981Z,97019.03
2023-01-01T16:43:59.989Z,97017.38
2023-01-01T16:46:30.280Z,97018.69
2023-01-01T16:48:59.696Z,97015.97
2023-01-01T16:51:30.122Z,97015.63
2023-01-01T16:54:01.376Z,97021.66
2023-01-01T16:56:30.137Z,97009.03
2023-01-01T16:59:03.444Z,97011.75
2023-01-01T17:01:33.710Z,97001.00
2023-01-01T17:04:03.230Z,97000.41
2023-01-01T17:06:31.687Z,97005.03
2023-01-01T17:09:01.633Z,97007.50
2023-01-01T17:11:29.985Z,97010.47
2023-01-01T17:13:59.627Z,97008.00
2023-01-01T17:16:36.246Z,97017.19
2023-01-01T17:19:14.890Z,97010.47
2023-01-01T17:21:45.173Z,97009.53
2023-01-01T17:24:13.789Z,97014.00
2023-01-01T17:26:42.211Z,97021.31
2023-01-01T17:29:12.211Z,97022.63
2023-01-01T17:31:40.655Z,97023.44
2023-01-01T17:34:14.512Z,97017.63
2023-01-01T17:36:45.137Z,97012.22
2023-01-01T17:39:15.245Z,97016.94
2023-01-01T17:41:45.767Z,97014.06
2023-01-01T17:44:14.229Z,97017.03
2023-01-01T17:46:44.740Z,97009.47
2023-01-01T17:49:14.688Z,97008.63
2023-01-01T17:51:43.281Z,97005.28
2023-01-01T17:54:14.189Z,97012.78
2023-01-01T17:56:42.872Z,97007.50
2023-01-01T17:59:12.302Z,97008.44
2023-01-01T18:01:40.712Z,97008.41
2023-01-01T18:04:10.848Z,97010.16
2023-01-01T18:06:44.251Z,97010.59
2023-01-01T18:09:16.263Z,97007.88
2023-01-01T18:11:45.891Z,97004.00
2023-01-01T18:14:17.332Z,96981.56
2023-01-01T18:16:50.171Z,96994.97
2023-01-01T18:19:19.287Z,96990.13
2023-01-01T18:21:49.559Z,96997.78
2023-01-01T18:24:17.925Z,96997.75
2023-01-01T18:26:46.606Z,96998.03
2023-01-01T18:29:15.487Z,96989.06
2023-01-01T18:31:45.286Z,96992.41
2023-01-01T18:34:14.318Z,96987.44
2023-01-01T18:36:42.701Z,96994.38
2023-01-01T18:39:17.602Z,96999.47
2023-01-01T18:42:09.390Z,96988.78
2023-01-01T18:44:38.003Z,96984.06
2023-01-01T18:47:14.872Z,96983.22
2023-01-01T18:49:48.918Z,96977.75
2023-01-01T18:52:25.219Z,96974.59
2023-01-01T18:55:13.527Z,96978.34
2023-01-01T18:57:42.696Z,96984.44
2023-01-01T19:00:22.839Z,96973.41
2023-01-01T19:02:58.453Z,96970.31
2023-01-01T19:05:29.936Z,96970.91
2023-01-01T19:08:04.195Z,96970.53
2023-01-01T19:10:38.484Z,96969.72
2023-01-01T19:13:16.467Z,96961.06
2023-01-01T19:15:47.216Z,96964.97
2023-01-01T19:18:17.620Z,96956.25
2023-01-01T19:20:46.737Z,96955.03
2023-01-01T19:23:20.055Z,96955.94
2023-01-01T19:25:51.153Z,96950.22
2023-01-01T19:28:35.317Z,96920.00
2023-01-01T19:31:05.333Z,96941.44
2023-01-01T19:33:34.439Z,96949.91
2023-01-01T19:36:02.757Z,96951.34
2023-01-01T19:38:31.609Z,96961.81
2023-01-01T19:41:01.343Z,96949.31
2023-01-01T19:43:30.901Z,96949.75
2023-01-01T19:45:59.357Z,96943.38
2023-01-01T19:48:28.514Z,96950.81
2023-01-01T19:50:57.259Z,96941.88
2023-01-01T19:53:25.702Z,96937.75
2023-01-01T19:55:54.704Z,96933.00
2023-01-01T19:58:24.761Z,96935.78
2023-01-01T20:00:53.929Z,96931.19
2023-01-01T20:06:12.989Z,96931.66
2023-01-01T20:08:41.798Z,96928.94
2023-01-01T20:11:10.138Z,96924.78
2023-01-01T20:13:40.114Z,96933.31
2023-01-01T20:16:09.780Z,96924.63
2023-01-01T20:18:38.170Z,96924.63
2023-01-01T20:21:26.623Z,96916.09
2023-01-01T20:23:56.181Z,96922.22
2023-01-01T20:26:26.180Z,96913.16
2023-01-01T20:29:18.980Z,96916.09
2023-01-01T20:31:48.575Z,96919.91
2023-01-01T20:34:17.035Z,96921.56
2023-01-01T20:37:05.296Z,96915.69
2023-01-01T20:39:34.165Z,96914.50
2023-01-01T20:42:02.551Z,96914.75
2023-01-01T20:44:32.880Z,96914.78
2023-01-01T20:47:01.542Z,96915.03
2023-01-01T20:49:29.898Z,96913.16
2023-01-01T20:51:58.681Z,96924.09
2023-01-01T20:54:27.181Z,96920.34
2023-01-01T20:56:55.573Z,96919.03
2023-01-01T20:59:35.247Z,96918.50
2023-01-01T21:02:06.725Z,96897.78
2023-01-01T21:04:39.388Z,96913.13
2023-01-01T21:07:10.041Z,96901.78
2023-01-01T21:09:39.945Z,96903.44
2023-01-01T21:12:09.152Z,96895.16
2023-01-01T21:14:37.961Z,96902.38
2023-01-01T21:17:21.430Z,96899.25
2023-01-01T21:19:50.617Z,96911.53
2023-01-01T21:22:19.397Z,96901.97
2023-01-01T21:24:53.544Z,96905.75
2023-01-01T21:27:29.561Z,96912.00
2023-01-01T21:29:58.781Z,96913.19
2023-01-01T21:32:38.501Z,96914.78
2023-01-01T21:35:17.223Z,96910.22
2023-01-01T21:37:50.297Z,96922.75
2023-01-01T21:40:41.100Z,96904.47
2023-01-01T21:43:32.737Z,96903.44
2023-01-01T21:46:22.301Z,96903.44
2023-01-01T21:48:59.685Z,96905.91
2023-01-01T21:51:31.449Z,96907.34
2023-01-01T21:54:17.859Z,96910.22
2023-01-01T21:56:53.969Z,96916.25
2023-01-01T21:59:30.597Z,96917.50
2023-01-01T22:02:19.512Z,96912.00
2023-01-01T22:04:51.803Z,96909.09
2023-01-01T22:10:18.192Z,96913.91
2023-01-01T22:12:47.237Z,96913.72
2023-01-01T22:15:30.337Z,96898.38
2023-01-01T22:18:16.593Z,96918.72
2023-01-01T22:20:47.834Z,96911.91
2023-01-01T22:23:34.721Z,96902.19
2023-01-01T22:26:19.843Z,96909.09
2023-01-01T22:28:51.409Z,96898.53
2023-01-01T22:31:24.990Z,96915.34
2023-01-01T22:33:55.322Z,96924.28
2023-01-01T22:36:28.063Z,96912.84
2023-01-01T22:39:01.532Z,96923.50
2023-01-01T22:41:30.841Z,96923.91
2023-01-01T22:44:03.501Z,96930.38
2023-01-01T22:46:36.911Z,96919.78
2023-01-01T22:49:16.521Z,96931.03
2023-01-01T22:51:48.311Z,96922.56
2023-01-01T22:54:17.044Z,96914.09
2023-01-01T22:56:45.364Z,96903.34
2023-01-01T22:59:14.450Z,96914.94
2023-01-01T23:01:42.808Z,96910.38
2023-01-01T23:04:12.057Z,96874.16
2023-01-01T23:06:40.677Z,96895.06
2023-01-01T23:09:11.840Z,96899.63
2023-01-01T23:11:41.039Z,96874.38
2023-01-01T23:14:27.686Z,96895.72
2023-01-01T23:16:56.288Z,96893.22
2023-01-01T23:19:24.630Z,96883.50
2023-01-01T23:21:53.070Z,96881.63
2023-01-01T23:24:25.582Z,96877.47
2023-01-01T23:26:54.609Z,96878.53
2023-01-01T23:29:24.702Z,96859.47
2023-01-01T23:31:53.817Z,96880.00
2023-01-01T23:34:22.406Z,96887.06
2023-01-01T23:36:54.327Z,96878.34
2023-01-01T23:39:24.056Z,96870.94
2023-01-01T23:41:53.176Z,96865.91
2023-01-01T23:44:21.489Z,96866.13
2023-01-01T23:46:50.936Z,96855.34
2023-01-01T23:49:20.365Z,96844.94
2023-01-01T23:51:49.729Z,96835.66
2023-01-01T23:54:18.824Z,96858.88
2023-01-01T23:56:48.592Z,96858.69
2023-01-01T23:59:17.607Z,96850.03
